Time;durP1;ratioP1;P1;durP2;ratioP2;P2;SDS_P1;SDS_P2;PMS_P1;PMS_P2;Temp;Humidity;BMP_temperature;BMP_pressure;BME280_temperature;BME280_humidity;BME280_pressure;Samples;Min_cycle;Max_cycle;Signal;HPM_P1;HPM_P2
2022/03/07 00:00:48;;;;;;;15.13;7.43;;;;;;;;;;5056682;28;20664;-71
2022/03/07 00:03:13;;;;;;;19.47;7.37;;;;;;;;;;5042995;28;20025;-71
2022/03/07 00:05:39;;;;;;;17.80;7.23;;;;;;;;;;5041840;28;20028;-71
2022/03/07 00:08:04;;;;;;;15.87;7.47;;;;;;;;;;5047320;28;20033;-71
2022/03/07 00:10:29;;;;;;;15.20;7.63;;;;;;;;;;5051094;28;20032;-71
2022/03/07 00:12:55;;;;;;;20.27;7.70;;;;;;;;;;5049323;28;20367;-72
2022/03/07 00:15:20;;;;;;;15.07;6.97;;;;;;;;;;5049229;28;20021;-73
2022/03/07 00:17:45;;;;;;;17.20;6.83;;;;;;;;;;5050138;28;20055;-73
2022/03/07 00:20:11;;;;;;;18.17;7.50;;;;;;;;;;5049889;28;20108;-73
2022/03/07 00:22:36;;;;;;;16.40;6.63;;;;;;;;;;5048924;28;20025;-71
2022/03/07 00:25:02;;;;;;;17.33;7.10;;;;;;;;;;5058015;28;20035;-71
2022/03/07 00:27:27;;;;;;;16.00;6.30;;;;;;;;;;5047697;28;20035;-71
2022/03/07 00:29:52;;;;;;;14.80;6.77;;;;;;;;;;5051793;28;20428;-71
2022/03/07 00:32:17;;;;;;;16.00;6.60;;;;;;;;;;5047545;28;20116;-71
2022/03/07 00:34:43;;;;;;;20.17;7.27;;;;;;;;;;5051694;28;20025;-71
2022/03/07 00:37:08;;;;;;;17.00;6.83;;;;;;;;;;5047594;28;20048;-71
2022/03/07 00:39:33;;;;;;;14.33;6.57;;;;;;;;;;5046387;28;20047;-71
2022/03/07 00:41:58;;;;;;;15.90;6.50;;;;;;;;;;5046490;28;20495;-71
2022/03/07 00:44:24;;;;;;;17.53;6.57;;;;;;;;;;5054160;28;20519;-71
2022/03/07 00:46:49;;;;;;;18.57;6.30;;;;;;;;;;5047384;28;20445;-71
2022/03/07 00:49:14;;;;;;;18.37;7.23;;;;;;;;;;5045972;28;20417;-71
2022/03/07 00:51:39;;;;;;;13.47;6.37;;;;;;;;;;5053307;28;20431;-72
2022/03/07 00:54:05;;;;;;;17.37;6.87;;;;;;;;;;5049316;28;20032;-71
2022/03/07 00:56:30;;;;;;;16.63;6.87;;;;;;;;;;5051002;28;20471;-71
2022/03/07 00:58:56;;;;;;;17.77;7.43;;;;;;;;;;5049798;28;20256;-71
2022/03/07 01:01:21;;;;;;;16.87;6.63;;;;;;;;;;5048301;28;20021;-71
2022/03/07 01:03:46;;;;;;;30.17;8.13;;;;;;;;;;5045167;28;20028;-71
2022/03/07 01:06:11;;;;;;;21.43;7.70;;;;;;;;;;5052802;28;20051;-72
2022/03/07 01:08:37;;;;;;;14.77;6.67;;;;;;;;;;5050423;28;20049;-72
2022/03/07 01:11:02;;;;;;;18.57;7.20;;;;;;;;;;5045241;28;20044;-71
2022/03/07 01:13:29;;;;;;;15.63;7.03;;;;;;;;;;5048732;28;20039;-72
2022/03/07 01:15:54;;;;;;;19.00;7.63;;;;;;;;;;5046053;28;20021;-72
2022/03/07 01:18:19;;;;;;;16.63;7.27;;;;;;;;;;5051505;28;20022;-72
2022/03/07 01:20:45;;;;;;;15.63;6.53;;;;;;;;;;5040556;28;20478;-72
2022/03/07 01:23:10;;;;;;;16.67;7.70;;;;;;;;;;5041998;28;20017;-72
2022/03/07 01:25:35;;;;;;;16.47;6.80;;;;;;;;;;5061181;28;20385;-72
2022/03/07 01:28:01;;;;;;;12.90;6.43;;;;;;;;;;5052946;28;20028;-72
2022/03/07 01:30:26;;;;;;;12.80;6.00;;;;;;;;;;5047450;28;20408;-72
2022/03/07 01:32:52;;;;;;;13.00;6.77;;;;;;;;;;5045424;28;20021;-72
2022/03/07 01:35:18;;;;;;;13.63;5.43;;;;;;;;;;5047166;28;20024;-72
2022/03/07 01:37:43;;;;;;;14.43;6.17;;;;;;;;;;5052812;28;20024;-72
2022/03/07 01:40:09;;;;;;;16.07;5.67;;;;;;;;;;5047586;28;20029;-72
2022/03/07 01:42:34;;;;;;;16.73;6.17;;;;;;;;;;5057417;28;20043;-72
2022/03/07 01:45:06;;;;;;;14.70;6.60;;;;;;;;;;5048810;28;20128;-72
2022/03/07 01:47:33;;;;;;;14.00;5.63;;;;;;;;;;5050836;28;20021;-72
2022/03/07 01:49:58;;;;;;;17.50;5.90;;;;;;;;;;5051746;28;20052;-72
2022/03/07 01:52:23;;;;;;;14.63;6.20;;;;;;;;;;5059802;28;20029;-72
2022/03/07 01:54:49;;;;;;;16.50;6.03;;;;;;;;;;5050486;28;20497;-72
2022/03/07 01:57:15;;;;;;;12.17;5.50;;;;;;;;;;5049489;28;20086;-72
2022/03/07 01:59:40;;;;;;;13.30;5.77;;;;;;;;;;5048020;28;20059;-72
2022/03/07 02:02:05;;;;;;;12.97;5.80;;;;;;;;;;5052297;28;20741;-72
2022/03/07 02:04:30;;;;;;;16.00;7.43;;;;;;;;;;5052612;28;20586;-72
2022/03/07 02:06:56;;;;;;;18.13;7.97;;;;;;;;;;5053367;28;20639;-72
2022/03/07 02:09:21;;;;;;;18.73;7.30;;;;;;;;;;5052178;28;20405;-72
2022/03/07 02:11:46;;;;;;;21.97;8.50;;;;;;;;;;5051317;28;20119;-72
2022/03/07 02:14:24;;;;;;;21.97;7.90;;;;;;;;;;5049954;28;20078;-72
2022/03/07 02:16:50;;;;;;;17.53;8.23;;;;;;;;;;5045330;28;20017;-72
2022/03/07 02:19:15;;;;;;;18.53;7.93;;;;;;;;;;5043231;28;20503;-71
2022/03/07 02:21:46;;;;;;;20.87;8.47;;;;;;;;;;5045465;28;20493;-72
2022/03/07 02:24:11;;;;;;;18.93;7.67;;;;;;;;;;5041354;28;20032;-72
2022/03/07 02:26:36;;;;;;;22.90;9.47;;;;;;;;;;5050226;28;20024;-72
2022/03/07 02:29:02;;;;;;;16.93;7.57;;;;;;;;;;5052192;28;20040;-72
2022/03/07 02:31:29;;;;;;;23.03;8.23;;;;;;;;;;5053912;28;20036;-72
2022/03/07 02:33:54;;;;;;;22.10;9.00;;;;;;;;;;5045219;28;20095;-71
2022/03/07 02:36:19;;;;;;;18.83;8.73;;;;;;;;;;5045072;28;20109;-71
2022/03/07 02:38:45;;;;;;;23.30;9.00;;;;;;;;;;5047097;28;20477;-72
2022/03/07 02:41:10;;;;;;;18.27;8.07;;;;;;;;;;5048724;28;20082;-72
2022/03/07 02:43:35;;;;;;;18.57;8.60;;;;;;;;;;5051800;28;20104;-71
2022/03/07 02:46:01;;;;;;;18.90;8.57;;;;;;;;;;5043875;28;20044;-71
2022/03/07 02:48:27;;;;;;;23.50;8.30;;;;;;;;;;5044529;28;20087;-72
2022/03/07 02:50:52;;;;;;;19.60;8.87;;;;;;;;;;5046044;28;20283;-71
2022/03/07 02:53:17;;;;;;;22.43;9.47;;;;;;;;;;5038006;28;20024;-72
2022/03/07 02:55:43;;;;;;;22.43;9.40;;;;;;;;;;5038640;28;20036;-72
2022/03/07 02:58:08;;;;;;;23.03;9.67;;;;;;;;;;5040995;28;20025;-72
2022/03/07 03:00:33;;;;;;;23.50;10.20;;;;;;;;;;5036968;28;20021;-72
2022/03/07 03:02:59;;;;;;;32.17;10.43;;;;;;;;;;5039540;28;20047;-72
2022/03/07 03:05:25;;;;;;;21.93;9.20;;;;;;;;;;5047158;28;20041;-72
2022/03/07 03:07:53;;;;;;;24.90;10.07;;;;;;;;;;5045204;28;20020;-72
2022/03/07 03:10:18;;;;;;;24.97;10.37;;;;;;;;;;5040524;28;20052;-72
2022/03/07 03:12:45;;;;;;;25.13;9.93;;;;;;;;;;5047633;28;20016;-72
2022/03/07 03:15:10;;;;;;;22.47;10.10;;;;;;;;;;5049290;28;20031;-72
2022/03/07 03:17:38;;;;;;;23.37;10.20;;;;;;;;;;5045586;28;20357;-72
2022/03/07 03:20:03;;;;;;;21.30;9.27;;;;;;;;;;5044638;28;20123;-72
2022/03/07 03:22:29;;;;;;;26.20;11.23;;;;;;;;;;5045826;28;20389;-72
2022/03/07 03:24:54;;;;;;;27.47;10.97;;;;;;;;;;5049028;28;20024;-72
2022/03/07 03:27:19;;;;;;;23.83;10.03;;;;;;;;;;5045464;28;20099;-72
2022/03/07 03:29:44;;;;;;;25.07;10.70;;;;;;;;;;5046325;28;20386;-72
2022/03/07 03:32:10;;;;;;;22.37;10.67;;;;;;;;;;5050749;28;20027;-72
2022/03/07 03:34:35;;;;;;;28.50;11.53;;;;;;;;;;5048440;28;20028;-72
2022/03/07 03:37:00;;;;;;;27.93;11.27;;;;;;;;;;5046047;28;20073;-72
2022/03/07 03:39:25;;;;;;;25.87;11.43;;;;;;;;;;5046079;28;20133;-72
2022/03/07 03:41:51;;;;;;;31.23;11.77;;;;;;;;;;5053143;28;20627;-71
2022/03/07 03:44:16;;;;;;;31.40;12.83;;;;;;;;;;5046489;28;20634;-71
2022/03/07 03:46:41;;;;;;;34.13;12.20;;;;;;;;;;5046203;28;20043;-71
2022/03/07 03:49:06;;;;;;;26.60;11.53;;;;;;;;;;5047623;28;20150;-71
2022/03/07 03:51:34;;;;;;;25.13;11.03;;;;;;;;;;5051937;28;20113;-71
2022/03/07 03:53:59;;;;;;;32.07;12.07;;;;;;;;;;5047666;28;20486;-71
2022/03/07 03:56:25;;;;;;;31.97;12.87;;;;;;;;;;5050709;28;20405;-71
2022/03/07 03:58:50;;;;;;;34.30;12.37;;;;;;;;;;5051988;28;20112;-71
2022/03/07 04:01:15;;;;;;;30.00;12.27;;;;;;;;;;5052359;28;20037;-71
2022/03/07 04:03:40;;;;;;;34.00;13.07;;;;;;;;;;5044237;28;20036;-71
2022/03/07 04:06:08;;;;;;;31.70;12.87;;;;;;;;;;5054453;28;20042;-71
2022/03/07 04:08:34;;;;;;;35.30;12.60;;;;;;;;;;5045083;28;20059;-71
2022/03/07 04:10:59;;;;;;;29.10;12.33;;;;;;;;;;5049354;28;20327;-71
2022/03/07 04:13:24;;;;;;;31.70;13.07;;;;;;;;;;5051973;28;20693;-71
2022/03/07 04:15:49;;;;;;;35.63;13.83;;;;;;;;;;5059092;28;20082;-71
2022/03/07 04:18:15;;;;;;;38.63;13.67;;;;;;;;;;5059443;28;20098;-71
2022/03/07 04:20:40;;;;;;;37.90;15.40;;;;;;;;;;5044459;28;20481;-71
2022/03/07 04:23:06;;;;;;;39.10;13.97;;;;;;;;;;5052562;28;20122;-71
2022/03/07 04:25:33;;;;;;;34.50;15.17;;;;;;;;;;5052927;28;20032;-71
2022/03/07 04:27:58;;;;;;;39.30;13.53;;;;;;;;;;5049702;28;20283;-71
2022/03/07 04:30:24;;;;;;;37.00;14.37;;;;;;;;;;5047209;28;20345;-71
2022/03/07 04:32:49;;;;;;;42.90;15.97;;;;;;;;;;5043989;28;20029;-71
2022/03/07 04:35:14;;;;;;;29.03;11.97;;;;;;;;;;5043977;28;20112;-71
2022/03/07 04:37:40;;;;;;;30.63;12.73;;;;;;;;;;5047845;28;20055;-71
2022/03/07 04:40:06;;;;;;;37.10;13.83;;;;;;;;;;5044394;28;20025;-71
2022/03/07 04:42:31;;;;;;;35.90;13.17;;;;;;;;;;5044156;28;20151;-71
2022/03/07 04:44:57;;;;;;;33.70;13.90;;;;;;;;;;5049829;28;20960;-71
2022/03/07 04:47:22;;;;;;;35.57;15.13;;;;;;;;;;5052601;28;20043;-71
2022/03/07 04:49:47;;;;;;;37.03;14.50;;;;;;;;;;5055714;28;20013;-71
2022/03/07 04:52:12;;;;;;;36.77;15.20;;;;;;;;;;5043126;28;20035;-71
2022/03/07 04:54:38;;;;;;;31.10;14.37;;;;;;;;;;5045917;28;20128;-73
2022/03/07 04:57:04;;;;;;;32.00;14.20;;;;;;;;;;5060352;28;20020;-71
2022/03/07 04:59:30;;;;;;;29.83;13.37;;;;;;;;;;5056073;28;20056;-71
2022/03/07 05:01:55;;;;;;;46.20;14.77;;;;;;;;;;5055632;28;20616;-71
2022/03/07 05:04:20;;;;;;;32.77;12.70;;;;;;;;;;5046380;28;20029;-71
2022/03/07 05:06:45;;;;;;;29.33;12.50;;;;;;;;;;5048980;28;20035;-71
2022/03/07 05:09:11;;;;;;;30.70;12.83;;;;;;;;;;5043030;28;20068;-71
2022/03/07 05:11:36;;;;;;;35.13;12.73;;;;;;;;;;5043250;28;20462;-71
2022/03/07 05:14:01;;;;;;;29.73;12.37;;;;;;;;;;5046020;28;20363;-71
2022/03/07 05:16:26;;;;;;;30.77;12.77;;;;;;;;;;5042521;28;20068;-71
2022/03/07 05:18:52;;;;;;;33.53;11.87;;;;;;;;;;5043728;28;20481;-71
2022/03/07 05:21:17;;;;;;;32.13;12.83;;;;;;;;;;5048671;28;20079;-71
2022/03/07 05:23:42;;;;;;;32.30;15.10;;;;;;;;;;5043633;28;20059;-71
2022/03/07 05:26:08;;;;;;;27.97;12.97;;;;;;;;;;5048384;28;20039;-71
2022/03/07 05:28:34;;;;;;;32.93;12.47;;;;;;;;;;5050394;28;20029;-71
2022/03/07 05:30:59;;;;;;;27.90;12.73;;;;;;;;;;5046564;28;20025;-71
2022/03/07 05:33:24;;;;;;;31.07;12.63;;;;;;;;;;5049177;28;20056;-71
2022/03/07 05:35:49;;;;;;;29.17;12.27;;;;;;;;;;5043497;28;20262;-71
2022/03/07 05:38:15;;;;;;;23.77;11.43;;;;;;;;;;5042871;28;20130;-71
2022/03/07 05:40:40;;;;;;;25.43;11.23;;;;;;;;;;5043136;28;20032;-71
2022/03/07 05:43:05;;;;;;;24.00;10.93;;;;;;;;;;5042855;28;20113;-71
2022/03/07 05:45:30;;;;;;;21.67;9.90;;;;;;;;;;5043055;28;20413;-71
2022/03/07 05:47:56;;;;;;;31.33;11.03;;;;;;;;;;5042859;28;20028;-71
2022/03/07 05:50:21;;;;;;;26.23;10.40;;;;;;;;;;5042995;28;20496;-71
2022/03/07 05:52:46;;;;;;;24.23;10.23;;;;;;;;;;5043218;28;20078;-72
2022/03/07 05:55:11;;;;;;;22.33;10.13;;;;;;;;;;5043390;28;20083;-72
2022/03/07 05:57:37;;;;;;;23.27;10.87;;;;;;;;;;5043542;28;20028;-72
2022/03/07 06:00:06;;;;;;;27.20;10.07;;;;;;;;;;5043290;28;20543;-72
2022/03/07 06:02:32;;;;;;;23.47;10.17;;;;;;;;;;5048565;28;20123;-72
2022/03/07 06:04:57;;;;;;;26.07;11.07;;;;;;;;;;5043702;28;20537;-72
2022/03/07 06:07:22;;;;;;;25.13;10.33;;;;;;;;;;5045655;28;20497;-72
2022/03/07 06:09:47;;;;;;;27.07;11.10;;;;;;;;;;5048941;28;20048;-72
2022/03/07 06:12:13;;;;;;;25.37;11.07;;;;;;;;;;5048097;28;20021;-71
2022/03/07 06:14:38;;;;;;;24.67;10.40;;;;;;;;;;5049455;28;20094;-72
2022/03/07 06:17:03;;;;;;;27.73;10.03;;;;;;;;;;5047989;28;20031;-72
2022/03/07 06:19:28;;;;;;;21.10;10.60;;;;;;;;;;5046751;28;20027;-71
2022/03/07 06:21:54;;;;;;;23.27;10.37;;;;;;;;;;5040813;28;20584;-71
2022/03/07 06:24:19;;;;;;;23.47;10.27;;;;;;;;;;5043495;28;20107;-71
2022/03/07 06:26:44;;;;;;;22.10;10.67;;;;;;;;;;5048100;28;20027;-71
2022/03/07 06:29:10;;;;;;;24.77;10.27;;;;;;;;;;5044133;28;20493;-71
2022/03/07 06:31:35;;;;;;;21.80;10.70;;;;;;;;;;5046781;28;20132;-71
2022/03/07 06:34:00;;;;;;;19.80;10.07;;;;;;;;;;5046452;28;20025;-71
2022/03/07 06:36:26;;;;;;;20.73;9.50;;;;;;;;;;5054137;28;20040;-71
2022/03/07 06:38:51;;;;;;;25.90;10.47;;;;;;;;;;5048474;28;20111;-71
2022/03/07 06:41:16;;;;;;;21.77;8.83;;;;;;;;;;5046229;28;20119;-72
2022/03/07 06:43:41;;;;;;;25.40;9.83;;;;;;;;;;5046386;28;20058;-72
2022/03/07 06:46:06;;;;;;;22.63;9.87;;;;;;;;;;5046715;28;20025;-72
2022/03/07 06:48:33;;;;;;;22.73;10.20;;;;;;;;;;5059747;28;20036;-70
2022/03/07 06:50:58;;;;;;;20.40;9.57;;;;;;;;;;5053060;28;20703;-71
2022/03/07 06:53:23;;;;;;;20.97;9.40;;;;;;;;;;5051000;28;20067;-71
2022/03/07 06:55:49;;;;;;;19.47;8.67;;;;;;;;;;5045273;28;20021;-71
2022/03/07 06:58:14;;;;;;;22.00;10.33;;;;;;;;;;5047015;28;20025;-71
2022/03/07 07:00:39;;;;;;;23.97;9.53;;;;;;;;;;5045240;28;20712;-71
2022/03/07 07:03:05;;;;;;;22.47;10.27;;;;;;;;;;5045876;28;20032;-71
2022/03/07 07:05:32;;;;;;;26.20;9.60;;;;;;;;;;5046109;28;20112;-71
2022/03/07 07:07:58;;;;;;;24.73;9.37;;;;;;;;;;5045284;28;20041;-71
2022/03/07 07:10:24;;;;;;;21.13;9.90;;;;;;;;;;5044441;28;20114;-75
2022/03/07 07:12:49;;;;;;;24.97;11.07;;;;;;;;;;5045794;28;20029;-71
2022/03/07 07:15:15;;;;;;;27.00;10.63;;;;;;;;;;5047260;28;20024;-71
2022/03/07 07:17:40;;;;;;;26.97;10.80;;;;;;;;;;5034067;28;20022;-71
2022/03/07 07:20:07;;;;;;;38.83;10.57;;;;;;;;;;5047415;28;20025;-71
2022/03/07 07:22:32;;;;;;;38.13;11.37;;;;;;;;;;5047569;28;20028;-71
2022/03/07 07:24:57;;;;;;;43.30;12.40;;;;;;;;;;5046591;28;20398;-71
2022/03/07 07:27:23;;;;;;;35.10;11.87;;;;;;;;;;5047070;28;20078;-71
2022/03/07 07:29:48;;;;;;;41.40;11.67;;;;;;;;;;5047826;28;20057;-71
2022/03/07 07:32:13;;;;;;;37.27;13.67;;;;;;;;;;5047977;28;20457;-71
2022/03/07 07:34:39;;;;;;;33.80;10.83;;;;;;;;;;5047556;28;20105;-71
2022/03/07 07:37:04;;;;;;;37.90;11.83;;;;;;;;;;5047792;28;20048;-70
2022/03/07 07:39:29;;;;;;;39.90;12.13;;;;;;;;;;5047405;28;20513;-71
2022/03/07 07:41:56;;;;;;;33.77;11.97;;;;;;;;;;5046677;28;20041;-71
2022/03/07 07:44:21;;;;;;;35.50;11.43;;;;;;;;;;5046962;28;20033;-71
2022/03/07 07:46:46;;;;;;;48.17;13.70;;;;;;;;;;5047427;28;20047;-71
2022/03/07 07:49:12;;;;;;;49.27;13.20;;;;;;;;;;5048060;28;20105;-71
2022/03/07 07:51:37;;;;;;;55.87;17.33;;;;;;;;;;5047796;28;20036;-72
2022/03/07 07:54:03;;;;;;;50.63;14.53;;;;;;;;;;5048087;28;20086;-71
2022/03/07 07:56:28;;;;;;;39.10;12.47;;;;;;;;;;5047794;28;20418;-71
2022/03/07 07:58:53;;;;;;;47.07;15.47;;;;;;;;;;5048029;28;20048;-72
2022/03/07 08:01:19;;;;;;;49.07;12.93;;;;;;;;;;5048874;28;20031;-71
2022/03/07 08:03:44;;;;;;;42.13;14.17;;;;;;;;;;5043447;28;20079;-71
2022/03/07 08:06:10;;;;;;;53.27;15.30;;;;;;;;;;5048107;28;20138;-71
2022/03/07 08:08:35;;;;;;;49.33;15.77;;;;;;;;;;5047478;28;20017;-72
2022/03/07 08:11:00;;;;;;;52.97;14.00;;;;;;;;;;5049561;28;20253;-72
2022/03/07 08:13:26;;;;;;;55.47;14.33;;;;;;;;;;5049621;28;20209;-73
2022/03/07 08:15:51;;;;;;;51.17;14.17;;;;;;;;;;5049922;28;20013;-72
2022/03/07 08:18:17;;;;;;;48.00;16.77;;;;;;;;;;5049290;28;20033;-72
2022/03/07 08:20:43;;;;;;;55.07;14.90;;;;;;;;;;5049824;28;20616;-72
2022/03/07 08:23:08;;;;;;;57.47;16.23;;;;;;;;;;5049647;28;20023;-72
2022/03/07 08:25:34;;;;;;;55.53;15.00;;;;;;;;;;5049180;28;20036;-73
2022/03/07 08:27:59;;;;;;;53.90;16.13;;;;;;;;;;5050515;28;20082;-72
2022/03/07 08:30:26;;;;;;;51.53;14.27;;;;;;;;;;5050049;28;20108;-73
2022/03/07 08:32:52;;;;;;;48.80;17.13;;;;;;;;;;5049287;28;20036;-73
2022/03/07 08:35:17;;;;;;;53.07;15.73;;;;;;;;;;5049604;28;20527;-73
2022/03/07 08:37:45;;;;;;;41.07;13.90;;;;;;;;;;5048875;28;20488;-72
2022/03/07 08:40:11;;;;;;;50.90;14.83;;;;;;;;;;5048809;28;20060;-72
2022/03/07 08:42:36;;;;;;;60.53;17.17;;;;;;;;;;5048716;28;20017;-72
2022/03/07 08:45:01;;;;;;;58.80;17.43;;;;;;;;;;5048274;28;20041;-72
2022/03/07 08:47:26;;;;;;;54.17;16.67;;;;;;;;;;5049530;28;20028;-73
2022/03/07 08:49:52;;;;;;;51.70;16.77;;;;;;;;;;5049153;28;20033;-72
2022/03/07 08:52:17;;;;;;;56.53;16.93;;;;;;;;;;5047982;28;20021;-72
2022/03/07 08:54:43;;;;;;;53.20;15.53;;;;;;;;;;5050065;28;20020;-72
2022/03/07 08:57:09;;;;;;;49.13;16.60;;;;;;;;;;5050083;28;20024;-72
2022/03/07 08:59:34;;;;;;;52.27;16.10;;;;;;;;;;5048900;28;20090;-72
2022/03/07 09:02:00;;;;;;;57.20;16.90;;;;;;;;;;5048616;28;20020;-73
2022/03/07 09:04:25;;;;;;;63.63;16.97;;;;;;;;;;5048609;28;20025;-72
2022/03/07 09:06:51;;;;;;;55.57;16.10;;;;;;;;;;5049518;28;20006;-73
2022/03/07 09:09:16;;;;;;;53.63;15.50;;;;;;;;;;5047988;28;20045;-73
2022/03/07 09:11:47;;;;;;;50.53;16.23;;;;;;;;;;5048673;28;20045;-73
2022/03/07 09:14:12;;;;;;;44.23;14.43;;;;;;;;;;5048440;28;20493;-73
2022/03/07 09:16:38;;;;;;;47.60;15.50;;;;;;;;;;5043776;28;20022;-73
2022/03/07 09:19:03;;;;;;;42.97;14.73;;;;;;;;;;5039696;28;20032;-73
2022/03/07 09:21:29;;;;;;;44.33;14.70;;;;;;;;;;5048012;28;20024;-73
2022/03/07 09:23:54;;;;;;;38.73;13.63;;;;;;;;;;5048870;28;20113;-73
2022/03/07 09:26:19;;;;;;;39.83;12.27;;;;;;;;;;5048028;28;20037;-73
2022/03/07 09:28:45;;;;;;;56.00;14.80;;;;;;;;;;5045731;28;20041;-73
2022/03/07 09:31:10;;;;;;;45.00;14.57;;;;;;;;;;5045580;28;20797;-73
2022/03/07 09:33:36;;;;;;;40.87;14.47;;;;;;;;;;5045002;28;20636;-74
2022/03/07 09:36:01;;;;;;;39.13;13.50;;;;;;;;;;5045758;28;20087;-73
2022/03/07 09:38:28;;;;;;;40.67;12.80;;;;;;;;;;5044671;28;20029;-73
2022/03/07 09:40:54;;;;;;;39.37;12.47;;;;;;;;;;5045572;28;20157;-73
2022/03/07 09:43:19;;;;;;;36.97;12.50;;;;;;;;;;5044306;28;20033;-73
2022/03/07 09:45:44;;;;;;;38.47;12.17;;;;;;;;;;5045322;28;20025;-73
2022/03/07 09:48:10;;;;;;;47.13;12.60;;;;;;;;;;5044391;28;20039;-72
2022/03/07 09:50:36;;;;;;;43.10;14.47;;;;;;;;;;5046263;28;20025;-72
2022/03/07 09:53:01;;;;;;;44.67;14.23;;;;;;;;;;5046111;28;20514;-72
2022/03/07 09:55:26;;;;;;;42.73;12.93;;;;;;;;;;5044331;28;20029;-72
2022/03/07 09:57:51;;;;;;;45.30;13.40;;;;;;;;;;5046002;28;20052;-73
2022/03/07 10:00:17;;;;;;;50.77;14.37;;;;;;;;;;5045697;28;20025;-72
2022/03/07 10:02:53;;;;;;;41.67;14.13;;;;;;;;;;5044973;28;20032;-71
2022/03/07 10:05:19;;;;;;;34.80;12.87;;;;;;;;;;5052304;28;20096;-73
2022/03/07 10:07:44;;;;;;;53.10;14.53;;;;;;;;;;5049623;28;20158;-72
2022/03/07 10:10:10;;;;;;;37.23;14.10;;;;;;;;;;5049400;28;20045;-72
2022/03/07 10:12:43;;;;;;;47.10;13.43;;;;;;;;;;5050652;28;20029;-72
2022/03/07 10:15:12;;;;;;;44.00;13.87;;;;;;;;;;5050472;28;20629;-73
2022/03/07 10:17:39;;;;;;;39.10;12.87;;;;;;;;;;5050208;28;20029;-72
2022/03/07 10:20:05;;;;;;;39.30;12.03;;;;;;;;;;5043383;28;20425;-73
2022/03/07 10:22:31;;;;;;;42.87;13.43;;;;;;;;;;5047709;28;20052;-73
2022/03/07 10:25:01;;;;;;;44.20;13.90;;;;;;;;;;5045082;28;20478;-73
2022/03/07 10:27:39;;;;;;;29.23;9.30;;;;;;;;;;5049147;28;20051;-73
2022/03/07 10:30:18;;;;;;;27.73;9.57;;;;;;;;;;5048361;28;20091;-73
2022/03/07 10:32:50;;;;;;;22.17;8.43;;;;;;;;;;5048491;28;20028;-73
2022/03/07 10:35:23;;;;;;;20.67;7.90;;;;;;;;;;5047633;28;20462;-73
2022/03/07 10:37:49;;;;;;;25.27;8.43;;;;;;;;;;5047783;28;20099;-73
2022/03/07 10:40:21;;;;;;;27.13;8.10;;;;;;;;;;5047353;28;20113;-73
2022/03/07 10:42:47;;;;;;;27.87;7.80;;;;;;;;;;5047761;28;20470;-72
2022/03/07 10:45:13;;;;;;;23.60;8.30;;;;;;;;;;5049263;28;20039;-72
2022/03/07 10:47:38;;;;;;;23.57;7.47;;;;;;;;;;5048894;28;20096;-72
2022/03/07 10:50:04;;;;;;;19.37;7.80;;;;;;;;;;5049207;28;20035;-73
2022/03/07 10:52:40;;;;;;;26.87;8.13;;;;;;;;;;5049346;28;20103;-73
2022/03/07 10:55:07;;;;;;;32.63;9.00;;;;;;;;;;5049228;28;20045;-73
2022/03/07 10:57:34;;;;;;;23.80;7.87;;;;;;;;;;5048338;28;20025;-72
2022/03/07 11:00:06;;;;;;;22.23;7.97;;;;;;;;;;5048168;28;20037;-73
2022/03/07 11:02:37;;;;;;;22.87;8.07;;;;;;;;;;5046647;28;20110;-73
2022/03/07 11:05:03;;;;;;;18.42;6.70;;;;;;;;;;5047436;28;20033;-73
2022/03/07 11:07:28;;;;;;;22.17;6.87;;;;;;;;;;5043569;28;20485;-73
2022/03/07 11:09:53;;;;;;;17.97;6.40;;;;;;;;;;5046577;28;20044;-73
2022/03/07 11:12:19;;;;;;;20.63;5.67;;;;;;;;;;5047102;28;20014;-73
2022/03/07 11:14:44;;;;;;;18.07;6.40;;;;;;;;;;5046913;28;20505;-73
2022/03/07 11:17:14;;;;;;;16.87;4.97;;;;;;;;;;5047067;28;20009;-73
2022/03/07 11:19:39;;;;;;;11.80;4.60;;;;;;;;;;5046243;28;20025;-73
2022/03/07 11:22:05;;;;;;;14.67;5.60;;;;;;;;;;5044672;28;20537;-73
2022/03/07 11:24:30;;;;;;;19.03;5.20;;;;;;;;;;5045296;28;20029;-73
2022/03/07 11:26:56;;;;;;;14.37;4.73;;;;;;;;;;5033186;28;20660;-73
2022/03/07 11:29:32;;;;;;;11.37;4.53;;;;;;;;;;5046372;28;20029;-73
2022/03/07 11:32:01;;;;;;;13.17;4.90;;;;;;;;;;5047744;28;20051;-73
2022/03/07 11:34:26;;;;;;;19.30;5.30;;;;;;;;;;5047220;28;20063;-73
2022/03/07 11:36:52;;;;;;;8.53;3.47;;;;;;;;;;5045833;28;20052;-73
2022/03/07 11:39:28;;;;;;;10.67;4.40;;;;;;;;;;5046678;28;20732;-73
2022/03/07 11:41:53;;;;;;;18.57;5.10;;;;;;;;;;5046405;28;20027;-73
2022/03/07 11:44:22;;;;;;;15.37;5.57;;;;;;;;;;5047893;28;20104;-73
2022/03/07 11:46:51;;;;;;;14.60;5.57;;;;;;;;;;5045505;28;20375;-73
2022/03/07 11:49:28;;;;;;;13.23;4.93;;;;;;;;;;5044286;28;20053;-73
2022/03/07 11:51:58;;;;;;;15.70;4.63;;;;;;;;;;5044154;28;20013;-72
2022/03/07 11:54:23;;;;;;;13.37;4.50;;;;;;;;;;5047168;28;20519;-73
2022/03/07 11:56:49;;;;;;;12.03;4.00;;;;;;;;;;5048145;28;20017;-73
2022/03/07 11:59:15;;;;;;;12.17;3.70;;;;;;;;;;5046498;28;20031;-73
2022/03/07 12:01:50;;;;;;;13.57;5.00;;;;;;;;;;5045869;28;20025;-73
2022/03/07 12:04:15;;;;;;;11.90;4.27;;;;;;;;;;5045984;28;20566;-73
2022/03/07 12:06:44;;;;;;;8.77;3.30;;;;;;;;;;5045758;28;20096;-73
2022/03/07 12:09:09;;;;;;;10.30;3.67;;;;;;;;;;5038044;28;20086;-74
2022/03/07 12:11:35;;;;;;;15.30;4.10;;;;;;;;;;5037628;28;20025;-73
2022/03/07 12:14:07;;;;;;;7.93;3.00;;;;;;;;;;5041512;28;20537;-73
2022/03/07 12:16:37;;;;;;;7.37;3.23;;;;;;;;;;5046768;28;20029;-73
2022/03/07 12:19:12;;;;;;;8.03;2.93;;;;;;;;;;5038505;28;20027;-73
2022/03/07 12:21:41;;;;;;;7.57;2.07;;;;;;;;;;5035758;28;20510;-73
2022/03/07 12:24:06;;;;;;;9.03;3.23;;;;;;;;;;5044321;28;20040;-73
2022/03/07 12:26:31;;;;;;;9.70;3.63;;;;;;;;;;5042952;28;20536;-73
2022/03/07 12:28:57;;;;;;;6.60;2.80;;;;;;;;;;5043469;28;20107;-73
2022/03/07 12:31:22;;;;;;;7.93;3.30;;;;;;;;;;5044994;28;20059;-73
2022/03/07 12:33:47;;;;;;;7.23;2.27;;;;;;;;;;5043456;28;20021;-73
2022/03/07 12:36:14;;;;;;;6.10;2.67;;;;;;;;;;5046483;28;20017;-73
2022/03/07 12:38:47;;;;;;;8.50;2.63;;;;;;;;;;5046948;28;20021;-73
2022/03/07 12:41:13;;;;;;;6.53;2.63;;;;;;;;;;5045627;28;20482;-73
2022/03/07 12:43:38;;;;;;;8.30;2.60;;;;;;;;;;5045484;28;20021;-73
2022/03/07 12:46:04;;;;;;;12.83;4.10;;;;;;;;;;5046124;28;20492;-73
2022/03/07 12:48:41;;;;;;;10.50;3.30;;;;;;;;;;5046895;28;20168;-73
2022/03/07 12:51:08;;;;;;;8.43;2.80;;;;;;;;;;5045792;28;20139;-73
2022/03/07 12:53:34;;;;;;;12.27;3.00;;;;;;;;;;5043687;28;20028;-72
2022/03/07 12:56:03;;;;;;;6.90;2.77;;;;;;;;;;5044671;28;20063;-72
2022/03/07 12:58:28;;;;;;;6.90;2.67;;;;;;;;;;5043591;28;20024;-72
2022/03/07 13:00:56;;;;;;;5.97;2.43;;;;;;;;;;5044090;28;20070;-72
2022/03/07 13:03:22;;;;;;;4.53;1.90;;;;;;;;;;5043212;28;20029;-73
2022/03/07 13:05:47;;;;;;;4.97;2.10;;;;;;;;;;5044196;28;20108;-72
2022/03/07 13:08:12;;;;;;;5.57;2.53;;;;;;;;;;5030599;28;20519;-72
2022/03/07 13:10:47;;;;;;;5.77;2.33;;;;;;;;;;5043485;28;20045;-72
2022/03/07 13:13:12;;;;;;;6.30;1.80;;;;;;;;;;5044409;28;20021;-72
2022/03/07 13:15:41;;;;;;;5.37;2.10;;;;;;;;;;5044795;28;20028;-72
2022/03/07 13:18:06;;;;;;;5.83;2.00;;;;;;;;;;5044599;28;20044;-71
2022/03/07 13:20:32;;;;;;;4.60;1.90;;;;;;;;;;5035692;28;20437;-72
2022/03/07 13:23:01;;;;;;;6.40;1.80;;;;;;;;;;5044214;28;20028;-72
2022/03/07 13:25:34;;;;;;;4.47;1.60;;;;;;;;;;5044169;28;20024;-72
2022/03/07 13:27:59;;;;;;;7.43;1.77;;;;;;;;;;5037992;28;20025;-71
2022/03/07 13:30:25;;;;;;;5.40;2.42;;;;;;;;;;5043680;28;20035;-72
2022/03/07 13:32:50;;;;;;;5.45;1.52;;;;;;;;;;5043523;28;20025;-72
2022/03/07 13:35:27;;;;;;;3.47;1.23;;;;;;;;;;5042736;28;20074;-72
2022/03/07 13:37:53;;;;;;;5.70;1.40;;;;;;;;;;5043028;28;20025;-72
2022/03/07 13:40:21;;;;;;;4.65;1.50;;;;;;;;;;5046229;28;20025;-72
2022/03/07 13:42:47;;;;;;;4.57;1.70;;;;;;;;;;5033278;28;20106;-72
2022/03/07 13:45:18;;;;;;;6.03;1.50;;;;;;;;;;5045584;28;20053;-72
2022/03/07 13:47:44;;;;;;;4.40;1.60;;;;;;;;;;5046142;28;20591;-72
2022/03/07 13:50:11;;;;;;;3.40;1.67;;;;;;;;;;5046757;28;20021;-72
2022/03/07 13:52:37;;;;;;;5.37;1.83;;;;;;;;;;5046346;28;20071;-72
2022/03/07 13:55:07;;;;;;;4.63;1.83;;;;;;;;;;5046691;28;20080;-72
2022/03/07 13:57:34;;;;;;;4.43;1.87;;;;;;;;;;5045568;28;20616;-72
2022/03/07 14:00:01;;;;;;;2.90;1.30;;;;;;;;;;5046255;28;20043;-71
2022/03/07 14:02:26;;;;;;;4.50;1.77;;;;;;;;;;5045755;28;20021;-72
2022/03/07 14:04:56;;;;;;;3.60;1.53;;;;;;;;;;5046212;28;20048;-71
2022/03/07 14:07:22;;;;;;;3.97;1.50;;;;;;;;;;5044010;28;20041;-71
2022/03/07 14:10:14;;;;;;;4.57;1.77;;;;;;;;;;5044134;28;20124;-71
2022/03/07 14:12:40;;;;;;;4.30;1.50;;;;;;;;;;5021263;28;20514;-71
2022/03/07 14:15:09;;;;;;;3.63;1.50;;;;;;;;;;5021350;28;20522;-72
2022/03/07 14:17:35;;;;;;;3.57;1.40;;;;;;;;;;5021291;28;20079;-72
2022/03/07 14:20:03;;;;;;;4.03;1.20;;;;;;;;;;5016352;28;20050;-72